sensor_id;sensor_type;location;lat;lon;timestamp;P1;durP1;ratioP1;P2;durP2;ratioP2
19219;SDS011;9744;49.364;7.484;2023-06-22T00:00:24;8.65;;;6.40;;
19219;SDS011;9744;49.364;7.484;2023-06-22T00:02:52;7.70;;;6.40;;
19219;SDS011;9744;49.364;7.484;2023-06-22T00:05:21;8.48;;;5.53;;
19219;SDS011;9744;49.364;7.484;2023-06-22T00:07:48;13.75;;;6.47;;
19219;SDS011;9744;49.364;7.484;2023-06-22T00:10:20;13.82;;;5.82;;
19219;SDS011;9744;49.364;7.484;2023-06-22T00:12:47;9.23;;;5.45;;
19219;SDS011;9744;49.364;7.484;2023-06-22T00:15:14;9.38;;;5.65;;
19219;SDS011;9744;49.364;7.484;2023-06-22T00:17:42;10.70;;;5.88;;
19219;SDS011;9744;49.364;7.484;2023-06-22T00:20:09;9.60;;;6.47;;
19219;SDS011;9744;49.364;7.484;2023-06-22T00:22:38;8.82;;;5.97;;
19219;SDS011;9744;49.364;7.484;2023-06-22T00:25:08;9.40;;;5.90;;
19219;SDS011;9744;49.364;7.484;2023-06-22T00:27:35;10.70;;;6.45;;
19219;SDS011;9744;49.364;7.484;2023-06-22T00:30:06;7.10;;;5.93;;
19219;SDS011;9744;49.364;7.484;2023-06-22T00:32:34;9.45;;;6.40;;
19219;SDS011;9744;49.364;7.484;2023-06-22T00:35:01;10.73;;;6.80;;
19219;SDS011;9744;49.364;7.484;2023-06-22T00:37:29;15.43;;;7.57;;
19219;SDS011;9744;49.364;7.484;2023-06-22T00:39:57;10.38;;;7.07;;
19219;SDS011;9744;49.364;7.484;2023-06-22T00:42:25;10.00;;;6.57;;
19219;SDS011;9744;49.364;7.484;2023-06-22T00:44:52;8.77;;;5.85;;
19219;SDS011;9744;49.364;7.484;2023-06-22T00:47:19;8.32;;;6.50;;
19219;SDS011;9744;49.364;7.484;2023-06-22T00:49:47;9.15;;;7.50;;
19219;SDS011;9744;49.364;7.484;2023-06-22T00:52:16;9.90;;;7.75;;
19219;SDS011;9744;49.364;7.484;2023-06-22T00:54:46;9.48;;;7.65;;
19219;SDS011;9744;49.364;7.484;2023-06-22T00:57:17;9.10;;;7.40;;
19219;SDS011;9744;49.364;7.484;2023-06-22T00:59:45;8.80;;;6.80;;
19219;SDS011;9744;49.364;7.484;2023-06-22T01:02:14;10.95;;;6.47;;
19219;SDS011;9744;49.364;7.484;2023-06-22T01:04:41;7.85;;;6.13;;
19219;SDS011;9744;49.364;7.484;2023-06-22T01:07:10;6.55;;;5.57;;
19219;SDS011;9744;49.364;7.484;2023-06-22T01:09:49;8.60;;;6.32;;
19219;SDS011;9744;49.364;7.484;2023-06-22T01:12:25;8.00;;;6.38;;
19219;SDS011;9744;49.364;7.484;2023-06-22T01:14:58;10.05;;;6.60;;
19219;SDS011;9744;49.364;7.484;2023-06-22T01:17:31;9.27;;;7.40;;
19219;SDS011;9744;49.364;7.484;2023-06-22T01:19:59;9.95;;;7.15;;
19219;SDS011;9744;49.364;7.484;2023-06-22T01:22:31;7.90;;;6.40;;
19219;SDS011;9744;49.364;7.484;2023-06-22T01:25:09;9.30;;;6.35;;
19219;SDS011;9744;49.364;7.484;2023-06-22T01:27:47;7.88;;;5.53;;
19219;SDS011;9744;49.364;7.484;2023-06-22T01:30:21;6.03;;;5.10;;
19219;SDS011;9744;49.364;7.484;2023-06-22T01:32:51;8.02;;;5.00;;
19219;SDS011;9744;49.364;7.484;2023-06-22T01:35:20;5.40;;;4.78;;
19219;SDS011;9744;49.364;7.484;2023-06-22T01:37:48;8.20;;;5.28;;
19219;SDS011;9744;49.364;7.484;2023-06-22T01:40:17;9.25;;;5.53;;
19219;SDS011;9744;49.364;7.484;2023-06-22T01:42:46;8.43;;;5.25;;
19219;SDS011;9744;49.364;7.484;2023-06-22T01:45:14;10.45;;;6.72;;
19219;SDS011;9744;49.364;7.484;2023-06-22T01:47:44;13.15;;;8.77;;
19219;SDS011;9744;49.364;7.484;2023-06-22T01:50:11;10.57;;;8.27;;
19219;SDS011;9744;49.364;7.484;2023-06-22T01:52:39;10.13;;;7.47;;
19219;SDS011;9744;49.364;7.484;2023-06-22T01:55:06;8.40;;;6.18;;
19219;SDS011;9744;49.364;7.484;2023-06-22T01:57:34;7.88;;;6.28;;
19219;SDS011;9744;49.364;7.484;2023-06-22T02:00:03;11.70;;;6.32;;
19219;SDS011;9744;49.364;7.484;2023-06-22T02:02:46;9.55;;;6.88;;
19219;SDS011;9744;49.364;7.484;2023-06-22T02:05:20;10.57;;;8.40;;
19219;SDS011;9744;49.364;7.484;2023-06-22T02:07:52;14.52;;;9.65;;
19219;SDS011;9744;49.364;7.484;2023-06-22T02:10:25;12.68;;;8.35;;
19219;SDS011;9744;49.364;7.484;2023-06-22T02:12:57;11.20;;;9.00;;
19219;SDS011;9744;49.364;7.484;2023-06-22T02:15:25;11.20;;;8.52;;
19219;SDS011;9744;49.364;7.484;2023-06-22T02:17:55;9.10;;;7.05;;
19219;SDS011;9744;49.364;7.484;2023-06-22T02:20:23;10.32;;;6.53;;
19219;SDS011;9744;49.364;7.484;2023-06-22T02:22:50;8.82;;;6.55;;
19219;SDS011;9744;49.364;7.484;2023-06-22T02:25:18;10.80;;;7.05;;
19219;SDS011;9744;49.364;7.484;2023-06-22T02:27:45;12.10;;;6.95;;
19219;SDS011;9744;49.364;7.484;2023-06-22T02:30:12;9.77;;;6.82;;
19219;SDS011;9744;49.364;7.484;2023-06-22T02:32:41;6.80;;;5.63;;
19219;SDS011;9744;49.364;7.484;2023-06-22T02:35:10;6.25;;;5.50;;
19219;SDS011;9744;49.364;7.484;2023-06-22T02:37:37;7.20;;;5.75;;
19219;SDS011;9744;49.364;7.484;2023-06-22T02:40:07;10.57;;;7.85;;
19219;SDS011;9744;49.364;7.484;2023-06-22T02:42:35;14.32;;;9.00;;
19219;SDS011;9744;49.364;7.484;2023-06-22T02:45:03;12.60;;;9.35;;
19219;SDS011;9744;49.364;7.484;2023-06-22T02:47:30;19.10;;;11.05;;
19219;SDS011;9744;49.364;7.484;2023-06-22T02:49:58;21.48;;;11.52;;
19219;SDS011;9744;49.364;7.484;2023-06-22T02:52:27;18.45;;;11.35;;
19219;SDS011;9744;49.364;7.484;2023-06-22T02:54:54;18.85;;;10.63;;
19219;SDS011;9744;49.364;7.484;2023-06-22T02:57:21;14.32;;;10.05;;
19219;SDS011;9744;49.364;7.484;2023-06-22T02:59:48;15.13;;;9.93;;
19219;SDS011;9744;49.364;7.484;2023-06-22T03:02:16;14.63;;;9.27;;
19219;SDS011;9744;49.364;7.484;2023-06-22T03:04:43;14.15;;;9.48;;
19219;SDS011;9744;49.364;7.484;2023-06-22T03:07:14;11.43;;;8.45;;
19219;SDS011;9744;49.364;7.484;2023-06-22T03:09:44;10.10;;;7.80;;
19219;SDS011;9744;49.364;7.484;2023-06-22T03:12:11;11.05;;;8.02;;
19219;SDS011;9744;49.364;7.484;2023-06-22T03:14:48;11.80;;;7.95;;
19219;SDS011;9744;49.364;7.484;2023-06-22T03:17:17;12.05;;;7.75;;
19219;SDS011;9744;49.364;7.484;2023-06-22T03:19:44;9.63;;;6.78;;
19219;SDS011;9744;49.364;7.484;2023-06-22T03:22:12;10.23;;;7.68;;
19219;SDS011;9744;49.364;7.484;2023-06-22T03:24:40;7.55;;;6.55;;
19219;SDS011;9744;49.364;7.484;2023-06-22T03:27:08;8.50;;;7.32;;
19219;SDS011;9744;49.364;7.484;2023-06-22T03:29:36;8.30;;;6.85;;
19219;SDS011;9744;49.364;7.484;2023-06-22T03:32:03;8.02;;;6.68;;
19219;SDS011;9744;49.364;7.484;2023-06-22T03:34:32;8.15;;;6.97;;
19219;SDS011;9744;49.364;7.484;2023-06-22T03:36:59;8.15;;;7.18;;
19219;SDS011;9744;49.364;7.484;2023-06-22T03:39:27;10.20;;;8.05;;
19219;SDS011;9744;49.364;7.484;2023-06-22T03:41:54;13.80;;;8.13;;
19219;SDS011;9744;49.364;7.484;2023-06-22T03:44:24;11.13;;;8.43;;
19219;SDS011;9744;49.364;7.484;2023-06-22T03:46:51;14.30;;;7.55;;
19219;SDS011;9744;49.364;7.484;2023-06-22T03:49:19;13.85;;;8.75;;
19219;SDS011;9744;49.364;7.484;2023-06-22T03:51:46;11.57;;;8.27;;
19219;SDS011;9744;49.364;7.484;2023-06-22T03:54:13;10.52;;;8.05;;
19219;SDS011;9744;49.364;7.484;2023-06-22T03:56:40;10.80;;;7.50;;
19219;SDS011;9744;49.364;7.484;2023-06-22T03:59:07;9.52;;;6.57;;
19219;SDS011;9744;49.364;7.484;2023-06-22T04:01:36;7.93;;;5.95;;
19219;SDS011;9744;49.364;7.484;2023-06-22T04:04:04;7.90;;;6.03;;
19219;SDS011;9744;49.364;7.484;2023-06-22T04:06:32;12.70;;;8.68;;
19219;SDS011;9744;49.364;7.484;2023-06-22T04:09:00;14.18;;;9.77;;
19219;SDS011;9744;49.364;7.484;2023-06-22T04:11:28;13.80;;;8.27;;
19219;SDS011;9744;49.364;7.484;2023-06-22T04:13:55;9.30;;;7.60;;
19219;SDS011;9744;49.364;7.484;2023-06-22T04:16:22;9.27;;;7.15;;
19219;SDS011;9744;49.364;7.484;2023-06-22T04:18:51;9.15;;;7.82;;
19219;SDS011;9744;49.364;7.484;2023-06-22T04:21:18;10.13;;;6.60;;
19219;SDS011;9744;49.364;7.484;2023-06-22T04:23:46;9.25;;;7.78;;
19219;SDS011;9744;49.364;7.484;2023-06-22T04:26:13;9.05;;;6.95;;
19219;SDS011;9744;49.364;7.484;2023-06-22T04:28:40;9.52;;;6.53;;
19219;SDS011;9744;49.364;7.484;2023-06-22T04:31:08;9.68;;;7.00;;
19219;SDS011;9744;49.364;7.484;2023-06-22T04:33:35;8.70;;;6.25;;
19219;SDS011;9744;49.364;7.484;2023-06-22T04:36:07;9.50;;;7.30;;
19219;SDS011;9744;49.364;7.484;2023-06-22T04:38:38;8.38;;;6.55;;
19219;SDS011;9744;49.364;7.484;2023-06-22T04:41:05;11.77;;;9.32;;
19219;SDS011;9744;49.364;7.484;2023-06-22T04:43:34;12.85;;;8.98;;
19219;SDS011;9744;49.364;7.484;2023-06-22T04:46:02;15.82;;;7.55;;
19219;SDS011;9744;49.364;7.484;2023-06-22T04:48:29;10.05;;;8.35;;
19219;SDS011;9744;49.364;7.484;2023-06-22T04:50:58;10.40;;;8.35;;
19219;SDS011;9744;49.364;7.484;2023-06-22T04:57:43;11.55;;;7.32;;
19219;SDS011;9744;49.364;7.484;2023-06-22T05:00:16;11.35;;;8.63;;
19219;SDS011;9744;49.364;7.484;2023-06-22T05:02:45;14.07;;;7.47;;
19219;SDS011;9744;49.364;7.484;2023-06-22T05:05:13;7.85;;;6.63;;
19219;SDS011;9744;49.364;7.484;2023-06-22T05:10:27;7.63;;;6.47;;
19219;SDS011;9744;49.364;7.484;2023-06-22T05:12:56;9.88;;;7.28;;
19219;SDS011;9744;49.364;7.484;2023-06-22T05:15:23;11.25;;;7.93;;
19219;SDS011;9744;49.364;7.484;2023-06-22T05:17:55;13.98;;;7.43;;
19219;SDS011;9744;49.364;7.484;2023-06-22T05:20:23;10.38;;;7.85;;
19219;SDS011;9744;49.364;7.484;2023-06-22T05:22:53;11.73;;;8.05;;
19219;SDS011;9744;49.364;7.484;2023-06-22T05:28:19;10.35;;;6.45;;
19219;SDS011;9744;49.364;7.484;2023-06-22T05:30:48;11.77;;;7.75;;
19219;SDS011;9744;49.364;7.484;2023-06-22T05:33:15;8.98;;;7.03;;
19219;SDS011;9744;49.364;7.484;2023-06-22T05:35:43;10.38;;;8.25;;
19219;SDS011;9744;49.364;7.484;2023-06-22T05:38:10;10.52;;;7.07;;
19219;SDS011;9744;49.364;7.484;2023-06-22T05:40:37;10.60;;;7.53;;
19219;SDS011;9744;49.364;7.484;2023-06-22T05:43:04;12.85;;;9.73;;
19219;SDS011;9744;49.364;7.484;2023-06-22T05:45:33;11.07;;;9.50;;
19219;SDS011;9744;49.364;7.484;2023-06-22T05:48:00;13.60;;;9.32;;
19219;SDS011;9744;49.364;7.484;2023-06-22T05:50:27;12.75;;;9.25;;
19219;SDS011;9744;49.364;7.484;2023-06-22T05:52:55;12.63;;;9.18;;
19219;SDS011;9744;49.364;7.484;2023-06-22T05:55:22;10.27;;;8.80;;
19219;SDS011;9744;49.364;7.484;2023-06-22T05:57:49;11.88;;;8.43;;
19219;SDS011;9744;49.364;7.484;2023-06-22T06:00:17;9.75;;;8.48;;
19219;SDS011;9744;49.364;7.484;2023-06-22T06:02:46;11.52;;;7.70;;
19219;SDS011;9744;49.364;7.484;2023-06-22T06:05:15;7.82;;;6.38;;
19219;SDS011;9744;49.364;7.484;2023-06-22T06:07:44;12.52;;;7.30;;
19219;SDS011;9744;49.364;7.484;2023-06-22T06:10:12;8.35;;;6.72;;
19219;SDS011;9744;49.364;7.484;2023-06-22T06:12:39;14.00;;;10.05;;
19219;SDS011;9744;49.364;7.484;2023-06-22T06:15:07;9.43;;;6.65;;
19219;SDS011;9744;49.364;7.484;2023-06-22T06:17:35;11.13;;;8.10;;
19219;SDS011;9744;49.364;7.484;2023-06-22T06:20:04;8.75;;;6.95;;
19219;SDS011;9744;49.364;7.484;2023-06-22T06:22:33;10.70;;;7.70;;
19219;SDS011;9744;49.364;7.484;2023-06-22T06:25:00;12.65;;;9.05;;
19219;SDS011;9744;49.364;7.484;2023-06-22T06:27:27;10.07;;;8.40;;
19219;SDS011;9744;49.364;7.484;2023-06-22T06:29:55;9.30;;;7.13;;
19219;SDS011;9744;49.364;7.484;2023-06-22T06:32:23;9.10;;;6.82;;
19219;SDS011;9744;49.364;7.484;2023-06-22T06:34:50;8.95;;;6.68;;
19219;SDS011;9744;49.364;7.484;2023-06-22T06:37:19;10.05;;;8.23;;
19219;SDS011;9744;49.364;7.484;2023-06-22T06:39:46;10.20;;;6.65;;
19219;SDS011;9744;49.364;7.484;2023-06-22T06:42:13;6.72;;;6.05;;
19219;SDS011;9744;49.364;7.484;2023-06-22T06:44:40;9.70;;;7.60;;
19219;SDS011;9744;49.364;7.484;2023-06-22T06:47:07;19.63;;;11.35;;
19219;SDS011;9744;49.364;7.484;2023-06-22T06:49:35;11.75;;;8.68;;
19219;SDS011;9744;49.364;7.484;2023-06-22T06:52:02;12.18;;;8.93;;
19219;SDS011;9744;49.364;7.484;2023-06-22T06:54:31;14.07;;;9.73;;
19219;SDS011;9744;49.364;7.484;2023-06-22T06:56:58;10.77;;;8.05;;
19219;SDS011;9744;49.364;7.484;2023-06-22T06:59:29;8.88;;;7.97;;
19219;SDS011;9744;49.364;7.484;2023-06-22T07:01:56;9.30;;;7.68;;
19219;SDS011;9744;49.364;7.484;2023-06-22T07:04:23;10.65;;;7.82;;
19219;SDS011;9744;49.364;7.484;2023-06-22T07:06:51;14.00;;;7.82;;
19219;SDS011;9744;49.364;7.484;2023-06-22T07:09:18;11.50;;;7.53;;
19219;SDS011;9744;49.364;7.484;2023-06-22T07:11:48;7.57;;;5.82;;
19219;SDS011;9744;49.364;7.484;2023-06-22T07:14:15;9.48;;;7.78;;
19219;SDS011;9744;49.364;7.484;2023-06-22T07:16:42;9.57;;;6.93;;
19219;SDS011;9744;49.364;7.484;2023-06-22T07:19:10;8.13;;;6.35;;
19219;SDS011;9744;49.364;7.484;2023-06-22T07:21:38;10.15;;;6.55;;
19219;SDS011;9744;49.364;7.484;2023-06-22T07:24:06;8.88;;;6.50;;
19219;SDS011;9744;49.364;7.484;2023-06-22T07:26:33;8.55;;;6.28;;
19219;SDS011;9744;49.364;7.484;2023-06-22T07:29:02;10.20;;;6.63;;
19219;SDS011;9744;49.364;7.484;2023-06-22T07:31:29;9.90;;;7.95;;
19219;SDS011;9744;49.364;7.484;2023-06-22T07:33:56;9.13;;;7.78;;
19219;SDS011;9744;49.364;7.484;2023-06-22T07:36:24;8.57;;;7.63;;
19219;SDS011;9744;49.364;7.484;2023-06-22T07:38:51;11.90;;;9.85;;
19219;SDS011;9744;49.364;7.484;2023-06-22T07:41:18;12.20;;;7.82;;
19219;SDS011;9744;49.364;7.484;2023-06-22T07:43:46;10.40;;;7.00;;
19219;SDS011;9744;49.364;7.484;2023-06-22T07:46:15;8.88;;;7.25;;
19219;SDS011;9744;49.364;7.484;2023-06-22T07:48:42;8.82;;;6.75;;
19219;SDS011;9744;49.364;7.484;2023-06-22T07:51:09;9.65;;;6.88;;
19219;SDS011;9744;49.364;7.484;2023-06-22T07:53:39;10.45;;;7.22;;
19219;SDS011;9744;49.364;7.484;2023-06-22T07:56:06;7.45;;;6.65;;
19219;SDS011;9744;49.364;7.484;2023-06-22T07:58:34;11.27;;;7.22;;
19219;SDS011;9744;49.364;7.484;2023-06-22T08:01:02;10.70;;;7.10;;
19219;SDS011;9744;49.364;7.484;2023-06-22T08:03:30;8.13;;;6.00;;
19219;SDS011;9744;49.364;7.484;2023-06-22T08:05:58;7.70;;;5.45;;
19219;SDS011;9744;49.364;7.484;2023-06-22T08:08:25;7.35;;;6.03;;
19219;SDS011;9744;49.364;7.484;2023-06-22T08:10:52;9.48;;;5.88;;
19219;SDS011;9744;49.364;7.484;2023-06-22T08:13:19;8.88;;;6.10;;
19219;SDS011;9744;49.364;7.484;2023-06-22T08:15:47;8.75;;;6.50;;
19219;SDS011;9744;49.364;7.484;2023-06-22T08:18:14;7.10;;;6.03;;
19219;SDS011;9744;49.364;7.484;2023-06-22T08:20:43;7.55;;;5.75;;
19219;SDS011;9744;49.364;7.484;2023-06-22T08:23:11;6.93;;;5.38;;
19219;SDS011;9744;49.364;7.484;2023-06-22T08:25:38;5.60;;;5.03;;
19219;SDS011;9744;49.364;7.484;2023-06-22T08:28:05;7.15;;;4.88;;
19219;SDS011;9744;49.364;7.484;2023-06-22T08:30:32;7.47;;;5.40;;
19219;SDS011;9744;49.364;7.484;2023-06-22T08:32:59;7.32;;;4.57;;
19219;SDS011;9744;49.364;7.484;2023-06-22T08:35:28;6.60;;;4.63;;
19219;SDS011;9744;49.364;7.484;2023-06-22T08:37:57;7.80;;;5.10;;
19219;SDS011;9744;49.364;7.484;2023-06-22T08:40:27;5.55;;;5.00;;
19219;SDS011;9744;49.364;7.484;2023-06-22T08:42:54;6.43;;;5.35;;
19219;SDS011;9744;49.364;7.484;2023-06-22T08:45:22;6.72;;;5.18;;
19219;SDS011;9744;49.364;7.484;2023-06-22T08:47:49;6.22;;;4.80;;
19219;SDS011;9744;49.364;7.484;2023-06-22T08:50:17;8.43;;;4.63;;
19219;SDS011;9744;49.364;7.484;2023-06-22T08:52:44;6.22;;;4.80;;
19219;SDS011;9744;49.364;7.484;2023-06-22T08:55:14;5.70;;;4.72;;
19219;SDS011;9744;49.364;7.484;2023-06-22T08:57:42;6.30;;;4.57;;
19219;SDS011;9744;49.364;7.484;2023-06-22T09:00:10;6.63;;;4.50;;
19219;SDS011;9744;49.364;7.484;2023-06-22T09:02:45;8.63;;;4.70;;
19219;SDS011;9744;49.364;7.484;2023-06-22T09:05:13;13.90;;;7.03;;
19219;SDS011;9744;49.364;7.484;2023-06-22T09:07:41;11.30;;;8.43;;
19219;SDS011;9744;49.364;7.484;2023-06-22T09:10:08;10.95;;;8.35;;
19219;SDS011;9744;49.364;7.484;2023-06-22T09:12:38;10.45;;;6.53;;
19219;SDS011;9744;49.364;7.484;2023-06-22T09:15:06;9.80;;;6.55;;
19219;SDS011;9744;49.364;7.484;2023-06-22T09:17:34;11.23;;;5.93;;
19219;SDS011;9744;49.364;7.484;2023-06-22T09:20:02;6.78;;;5.63;;
19219;SDS011;9744;49.364;7.484;2023-06-22T09:22:31;6.93;;;4.95;;
19219;SDS011;9744;49.364;7.484;2023-06-22T09:24:58;7.97;;;4.97;;
19219;SDS011;9744;49.364;7.484;2023-06-22T09:27:26;6.82;;;4.80;;
19219;SDS011;9744;49.364;7.484;2023-06-22T09:29:55;8.07;;;4.40;;
19219;SDS011;9744;49.364;7.484;2023-06-22T09:32:23;7.38;;;4.32;;
19219;SDS011;9744;49.364;7.484;2023-06-22T09:34:51;12.02;;;4.65;;
19219;SDS011;9744;49.364;7.484;2023-06-22T09:37:18;7.30;;;4.65;;
19219;SDS011;9744;49.364;7.484;2023-06-22T09:39:46;8.02;;;3.95;;
19219;SDS011;9744;49.364;7.484;2023-06-22T09:42:13;9.35;;;3.97;;
19219;SDS011;9744;49.364;7.484;2023-06-22T09:44:40;9.15;;;3.83;;
19219;SDS011;9744;49.364;7.484;2023-06-22T09:47:09;9.20;;;3.90;;
19219;SDS011;9744;49.364;7.484;2023-06-22T09:49:36;9.75;;;3.92;;
19219;SDS011;9744;49.364;7.484;2023-06-22T09:52:03;11.95;;;3.45;;
19219;SDS011;9744;49.364;7.484;2023-06-22T09:54:33;4.95;;;3.85;;
19219;SDS011;9744;49.364;7.484;2023-06-22T09:57:02;7.65;;;3.90;;
19219;SDS011;9744;49.364;7.484;2023-06-22T09:59:30;12.40;;;4.10;;
19219;SDS011;9744;49.364;7.484;2023-06-22T10:02:00;8.10;;;3.70;;
19219;SDS011;9744;49.364;7.484;2023-06-22T10:04:29;8.20;;;3.83;;
19219;SDS011;9744;49.364;7.484;2023-06-22T10:06:56;4.93;;;3.50;;
19219;SDS011;9744;49.364;7.484;2023-06-22T10:09:23;11.25;;;3.70;;
19219;SDS011;9744;49.364;7.484;2023-06-22T10:11:50;9.98;;;3.47;;
19219;SDS011;9744;49.364;7.484;2023-06-22T10:14:17;5.85;;;3.70;;
19219;SDS011;9744;49.364;7.484;2023-06-22T10:16:45;10.38;;;4.05;;
19219;SDS011;9744;49.364;7.484;2023-06-22T10:19:12;12.10;;;3.67;;
19219;SDS011;9744;49.364;7.484;2023-06-22T10:21:41;8.07;;;4.15;;
19219;SDS011;9744;49.364;7.484;2023-06-22T10:24:08;9.02;;;3.42;;
19219;SDS011;9744;49.364;7.484;2023-06-22T10:26:36;6.47;;;3.67;;
19219;SDS011;9744;49.364;7.484;2023-06-22T10:29:03;8.65;;;3.67;;
19219;SDS011;9744;49.364;7.484;2023-06-22T10:31:30;7.47;;;3.65;;
19219;SDS011;9744;49.364;7.484;2023-06-22T10:33:57;10.57;;;3.78;;
19219;SDS011;9744;49.364;7.484;2023-06-22T10:36:25;8.73;;;4.40;;
19219;SDS011;9744;49.364;7.484;2023-06-22T10:38:53;12.25;;;5.22;;
19219;SDS011;9744;49.364;7.484;2023-06-22T10:41:21;13.20;;;4.07;;
19219;SDS011;9744;49.364;7.484;2023-06-22T10:43:48;8.07;;;3.53;;
19219;SDS011;9744;49.364;7.484;2023-06-22T10:46:15;8.23;;;4.13;;
19219;SDS011;9744;49.364;7.484;2023-06-22T10:48:42;12.63;;;3.95;;
19219;SDS011;9744;49.364;7.484;2023-06-22T10:51:10;13.25;;;4.63;;
19219;SDS011;9744;49.364;7.484;2023-06-22T10:53:37;12.02;;;4.53;;
19219;SDS011;9744;49.364;7.484;2023-06-22T10:56:06;8.43;;;4.20;;
19219;SDS011;9744;49.364;7.484;2023-06-22T10:58:33;11.70;;;4.18;;
19219;SDS011;9744;49.364;7.484;2023-06-22T11:01:01;8.98;;;4.03;;
19219;SDS011;9744;49.364;7.484;2023-06-22T11:03:28;9.90;;;4.55;;
19219;SDS011;9744;49.364;7.484;2023-06-22T11:05:55;7.72;;;3.70;;
19219;SDS011;9744;49.364;7.484;2023-06-22T11:08:23;9.75;;;4.18;;
19219;SDS011;9744;49.364;7.484;2023-06-22T11:10:50;11.07;;;4.28;;
19219;SDS011;9744;49.364;7.484;2023-06-22T11:13:19;12.40;;;4.75;;
19219;SDS011;9744;49.364;7.484;2023-06-22T11:15:46;7.47;;;4.65;;
19219;SDS011;9744;49.364;7.484;2023-06-22T11:18:14;9.90;;;4.43;;
19219;SDS011;9744;49.364;7.484;2023-06-22T11:20:41;8.38;;;4.30;;
19219;SDS011;9744;49.364;7.484;2023-06-22T11:23:09;13.68;;;4.32;;
19219;SDS011;9744;49.364;7.484;2023-06-22T11:25:37;17.17;;;4.65;;
19219;SDS011;9744;49.364;7.484;2023-06-22T11:28:04;10.18;;;4.57;;
19219;SDS011;9744;49.364;7.484;2023-06-22T11:30:33;9.13;;;4.20;;
19219;SDS011;9744;49.364;7.484;2023-06-22T11:33:00;12.35;;;4.53;;
19219;SDS011;9744;49.364;7.484;2023-06-22T11:35:28;11.85;;;4.63;;
19219;SDS011;9744;49.364;7.484;2023-06-22T11:37:55;8.80;;;4.18;;
19219;SDS011;9744;49.364;7.484;2023-06-22T11:40:23;14.48;;;4.53;;
19219;SDS011;9744;49.364;7.484;2023-06-22T11:42:50;14.07;;;4.63;;
19219;SDS011;9744;49.364;7.484;2023-06-22T11:45:18;12.55;;;4.15;;
19219;SDS011;9744;49.364;7.484;2023-06-22T11:47:47;9.55;;;4.70;;
19219;SDS011;9744;49.364;7.484;2023-06-22T11:50:14;11.80;;;4.85;;
19219;SDS011;9744;49.364;7.484;2023-06-22T11:52:41;10.90;;;4.53;;
19219;SDS011;9744;49.364;7.484;2023-06-22T11:55:08;8.25;;;3.70;;
19219;SDS011;9744;49.364;7.484;2023-06-22T11:57:36;9.52;;;4.90;;
19219;SDS011;9744;49.364;7.484;2023-06-22T12:00:18;13.20;;;4.57;;
19219;SDS011;9744;49.364;7.484;2023-06-22T12:02:47;9.95;;;4.53;;
19219;SDS011;9744;49.364;7.484;2023-06-22T12:05:14;13.73;;;4.82;;
19219;SDS011;9744;49.364;7.484;2023-06-22T12:07:42;13.55;;;4.43;;
19219;SDS011;9744;49.364;7.484;2023-06-22T12:10:10;14.63;;;4.45;;
19219;SDS011;9744;49.364;7.484;2023-06-22T12:12:37;15.68;;;5.07;;
19219;SDS011;9744;49.364;7.484;2023-06-22T12:15:04;10.77;;;4.35;;
19219;SDS011;9744;49.364;7.484;2023-06-22T12:17:33;19.10;;;5.00;;
19219;SDS011;9744;49.364;7.484;2023-06-22T12:20:02;14.90;;;4.55;;
19219;SDS011;9744;49.364;7.484;2023-06-22T12:22:30;12.93;;;5.57;;
19219;SDS011;9744;49.364;7.484;2023-06-22T12:24:58;14.00;;;4.53;;
19219;SDS011;9744;49.364;7.484;2023-06-22T12:27:25;17.83;;;4.85;;
19219;SDS011;9744;49.364;7.484;2023-06-22T12:29:53;13.90;;;5.00;;
19219;SDS011;9744;49.364;7.484;2023-06-22T12:32:21;13.73;;;5.53;;
19219;SDS011;9744;49.364;7.484;2023-06-22T12:34:48;10.80;;;4.30;;
19219;SDS011;9744;49.364;7.484;2023-06-22T12:37:17;16.30;;;4.82;;
19219;SDS011;9744;49.364;7.484;2023-06-22T12:39:45;15.90;;;4.82;;
19219;SDS011;9744;49.364;7.484;2023-06-22T12:42:12;13.65;;;4.50;;
19219;SDS011;9744;49.364;7.484;2023-06-22T12:44:39;11.13;;;4.43;;
19219;SDS011;9744;49.364;7.484;2023-06-22T12:47:07;14.60;;;4.30;;
19219;SDS011;9744;49.364;7.484;2023-06-22T12:49:34;17.55;;;5.00;;
19219;SDS011;9744;49.364;7.484;2023-06-22T12:52:02;15.88;;;4.75;;
19219;SDS011;9744;49.364;7.484;2023-06-22T12:54:31;12.20;;;5.07;;
19219;SDS011;9744;49.364;7.484;2023-06-22T12:56:58;17.85;;;4.93;;
19219;SDS011;9744;49.364;7.484;2023-06-22T12:59:26;18.48;;;5.32;;
19219;SDS011;9744;49.364;7.484;2023-06-22T13:01:53;26.00;;;5.82;;
19219;SDS011;9744;49.364;7.484;2023-06-22T13:04:20;14.85;;;5.40;;
19219;SDS011;9744;49.364;7.484;2023-06-22T13:06:48;12.68;;;5.07;;
19219;SDS011;9744;49.364;7.484;2023-06-22T13:09:15;15.50;;;4.68;;
19219;SDS011;9744;49.364;7.484;2023-06-22T13:11:45;17.80;;;5.35;;
19219;SDS011;9744;49.364;7.484;2023-06-22T13:14:13;15.60;;;5.15;;
19219;SDS011;9744;49.364;7.484;2023-06-22T13:16:41;16.40;;;5.13;;
19219;SDS011;9744;49.364;7.484;2023-06-22T13:19:08;23.23;;;5.38;;
19219;SDS011;9744;49.364;7.484;2023-06-22T13:21:36;14.68;;;5.38;;
19219;SDS011;9744;49.364;7.484;2023-06-22T13:24:03;17.17;;;5.00;;
19219;SDS011;9744;49.364;7.484;2023-06-22T13:26:32;12.32;;;4.97;;
19219;SDS011;9744;49.364;7.484;2023-06-22T13:29:01;17.02;;;5.13;;
19219;SDS011;9744;49.364;7.484;2023-06-22T13:31:28;17.23;;;5.00;;
19219;SDS011;9744;49.364;7.484;2023-06-22T13:33:56;21.27;;;5.38;;
19219;SDS011;9744;49.364;7.484;2023-06-22T13:36:23;14.60;;;4.90;;
19219;SDS011;9744;49.364;7.484;2023-06-22T13:38:50;14.57;;;5.25;;
19219;SDS011;9744;49.364;7.484;2023-06-22T13:41:18;18.58;;;4.97;;
19219;SDS011;9744;49.364;7.484;2023-06-22T13:43:45;19.13;;;4.78;;
19219;SDS011;9744;49.364;7.484;2023-06-22T13:46:14;15.18;;;4.80;;
19219;SDS011;9744;49.364;7.484;2023-06-22T13:48:41;19.60;;;4.10;;
19219;SDS011;9744;49.364;7.484;2023-06-22T13:51:08;17.23;;;4.25;;
19219;SDS011;9744;49.364;7.484;2023-06-22T13:53:36;15.80;;;4.50;;
19219;SDS011;9744;49.364;7.484;2023-06-22T13:56:03;22.55;;;4.50;;
19219;SDS011;9744;49.364;7.484;2023-06-22T13:58:31;15.95;;;4.35;;
19219;SDS011;9744;49.364;7.484;2023-06-22T14:00:58;15.80;;;4.38;;
19219;SDS011;9744;49.364;7.484;2023-06-22T14:03:27;15.85;;;3.78;;
19219;SDS011;9744;49.364;7.484;2023-06-22T14:05:54;25.10;;;4.22;;
19219;SDS011;9744;49.364;7.484;2023-06-22T14:08:23;20.52;;;4.40;;
19219;SDS011;9744;49.364;7.484;2023-06-22T14:10:50;14.43;;;3.38;;
19219;SDS011;9744;49.364;7.484;2023-06-22T14:13:19;17.25;;;4.13;;
19219;SDS011;9744;49.364;7.484;2023-06-22T14:15:46;12.70;;;3.75;;
19219;SDS011;9744;49.364;7.484;2023-06-22T14:18:14;21.70;;;3.92;;
19219;SDS011;9744;49.364;7.484;2023-06-22T14:20:43;13.70;;;3.63;;
19219;SDS011;9744;49.364;7.484;2023-06-22T14:23:12;15.50;;;3.72;;
19219;SDS011;9744;49.364;7.484;2023-06-22T14:25:40;18.17;;;4.22;;
19219;SDS011;9744;49.364;7.484;2023-06-22T14:28:07;13.60;;;3.42;;
19219;SDS011;9744;49.364;7.484;2023-06-22T14:30:35;15.15;;;3.47;;
19219;SDS011;9744;49.364;7.484;2023-06-22T14:33:02;13.65;;;3.45;;
19219;SDS011;9744;49.364;7.484;2023-06-22T14:35:30;19.10;;;3.75;;
19219;SDS011;9744;49.364;7.484;2023-06-22T14:37:59;18.40;;;3.10;;
19219;SDS011;9744;49.364;7.484;2023-06-22T14:40:26;16.77;;;3.35;;
19219;SDS011;9744;49.364;7.484;2023-06-22T14:42:53;17.95;;;3.72;;
19219;SDS011;9744;49.364;7.484;2023-06-22T14:45:21;17.02;;;2.58;;
19219;SDS011;9744;49.364;7.484;2023-06-22T14:47:49;11.65;;;3.05;;
19219;SDS011;9744;49.364;7.484;2023-06-22T14:50:16;15.27;;;2.97;;
19219;SDS011;9744;49.364;7.484;2023-06-22T14:52:43;10.05;;;2.90;;
19219;SDS011;9744;49.364;7.484;2023-06-22T14:55:12;12.60;;;3.05;;
19219;SDS011;9744;49.364;7.484;2023-06-22T14:57:39;8.02;;;2.22;;
19219;SDS011;9744;49.364;7.484;2023-06-22T15:00:07;11.68;;;2.47;;
19219;SDS011;9744;49.364;7.484;2023-06-22T15:02:35;10.40;;;2.67;;
19219;SDS011;9744;49.364;7.484;2023-06-22T15:05:02;16.25;;;3.17;;
19219;SDS011;9744;49.364;7.484;2023-06-22T15:07:30;9.45;;;2.38;;